Crossville Memorial Whitson Field
KCSV : now visible

Aeroporto :











RITROVATECI SU...

 
LOGIN :

Iscrizione | Disclaimer

   EN    FR    IT 

 









Sommario :    VFR   VFR Marginale   IFR   IFR Intensivo   IFR Molto Intensivo
Visibilità : 
Base nubi : 
>= 8 km
>= 3000ft
5 / 8 km
1000 / 3000 ft
1500m / 5 km
500 / 1000 ft
800 / 1500m
200 / 500 ft
< 800m
< 200 ft
Simboli :   Temporali  Nebbia  Neve Forte  Precipitazioni Forti  Vento > 20 kt






- Altitudine del aeroporto : 1881 ft


KCSV - Crossville Memorial Whitson Field

ULTIMO METAR :
  • 151453Z AUTO 00000KT 9SM OVC008 04/02 A3010 RMK AO2 SLP197 T00390017 51021

METARs OBSOLETI :
  • 151353Z AUTO 00000KT 7SM OVC007 03/02 A3008 RMK AO2 SLP194 T00330017
  • 151253Z AUTO 00000KT 7SM OVC008 03/02 A3005 RMK AO2 SLP183 T00330017
  • 151153Z AUTO 27005KT 8SM OVC009 03/02 A3003 RMK AO2 SLP175 70003 T00330017 10039 20033 51017

TAF KCSV
Valido dal 15 a 12 ore il 16 a 12 ore UTC


151121Z 1512/1612 00000KT P6SM OVC015
TEMPO 1512/1515 OVC007
FM151500 VRB03KT P6SM OVC020
FM151800 VRB04KT P6SM SCT180
FM160100 16008KT P6SM BKN060
FM161000 19010G17KT P6SM VCSH OVC010 WS020/22045KT



MetMap, La meteo Aeronautica in un colpo d'occhio ! - Copyright ORBIFLY Dicembre 2007 - Disclaimer

ORBIFLY MET'MAP TEAM :

Programmazione e sviluppo : Alexandra Zaïnal
Concezione : Baudouin d'Aumeries
Aiuto per la programmazione : Marc-Olivier Méhu
Supporto tecnico e logistico : Manuel Goepfert
Aiuto per la traduzione : Arnaldo La Scala

Contatto : metmap@orbifly.com




FONTI E CREDITI :

   NOAA       Earth
Advisory